Sand Point, AK

1:41 PM AKST on February 24, 2017 (GMT -0900)
Sand Point | | Change Station

Elev 20 ft 55.31 °N, 160.52 °W | Updated 5 minutes ago

Partly Cloudy
Partly Cloudy
43 °F
Feels Like 38 °F
N
9
Wind Variable Wind from NNW

Today
High -- | Low -- °F
--% Chance of Precip.
Yesterday
High -- | Low -- °F
Precip. -- in
Pressure 30.62 in
Visibility 10.0 miles
Clouds Few 2400 ft
Scattered Clouds 3000 ft
Windchill 38 °F
Dew Point 34 °F
Humidity 70%
Rainfall 0.00 in
Snow Depth Not available.
8:43 AM 7:08 PM
Waning Crescent, 3% visible
METAR PASD 242236Z 33008KT 10SM FEW024 SCT030 06/01 A3062 RMK AO1 WEA: NONE (DA)
Pressure 30.62 in
Visibility 10.0 miles
Clouds Few 2400 ft
Scattered Clouds 3000 ft
Windchill 38 °F
Dew Point 34 °F
Humidity 70%
Rainfall 0.00 in
Snow Depth Not available.
8:43 AM 7:08 PM
Waning Crescent, 3% visible
METAR PASD 242236Z 33008KT 10SM FEW024 SCT030 06/01 A3062 RMK AO1 WEA: NONE (DA)

Get Your Daily Forecast Email!

Thanks for signing up!

Be on the lookout for a verification email in your inbox.

You'll start receiving the daily forecast at 8 AM.

×

10-Day Weather Forecast

Almanac

Astronomy

Feb. 24, 2017 Rise Set
Actual Time
Civil Twilight
Nautical Twilight
Astronomical Twilight
Moon
Length of Visible Light
Length of Day
Tomorrow will be .
, % of the Moon is Illuminated

Today's Extremes

State Highs State Lows

Community

WunderPhotos

Upload Photos

1,962,540 photos uploaded!

WunderBlog® & News

Nearby

Air Quality

  Air Quality AQ Index Pollutant
Not available.

Snow Depth

Station Depth Elevation

Earthquake Activity

City Distance Mag. Time & Date
Minimum magnitude displayed is 2.5.

Coastal Water Temperatures

Place Temperature

Stations

Nearby Weather Stations

Station Location Temp. Windchill Dew Point Humidity Wind Precip. Elev Updated Type
                   

Watches & Warnings

There are currently no watches in effect.